sensor_id;sensor_type;location;lat;lon;timestamp;pressure;altitude;pressure_sealevel;temperature;humidity
73332;BME280;61560;33.718;73.040;2023-05-09T00:02:10;94547.84;;;19.61;42.80
73332;BME280;61560;33.718;73.040;2023-05-09T00:04:37;94546.75;;;19.58;43.05
73332;BME280;61560;33.718;73.040;2023-05-09T00:07:03;94554.81;;;19.56;43.14
73332;BME280;61560;33.718;73.040;2023-05-09T00:09:30;94557.00;;;19.52;43.47
73332;BME280;61560;33.718;73.040;2023-05-09T00:11:56;94560.84;;;19.55;43.17
73332;BME280;61560;33.718;73.040;2023-05-09T00:14:23;94569.47;;;19.57;42.79
73332;BME280;61560;33.718;73.040;2023-05-09T00:16:50;94570.84;;;19.62;42.84
73332;BME280;61560;33.718;73.040;2023-05-09T00:19:20;94564.78;;;19.63;42.61
73332;BME280;61560;33.718;73.040;2023-05-09T00:21:46;94560.94;;;19.60;42.86
73332;BME280;61560;33.718;73.040;2023-05-09T00:24:13;94570.06;;;19.61;42.65
73332;BME280;61560;33.718;73.040;2023-05-09T00:26:40;94572.91;;;19.52;42.31
73332;BME280;61560;33.718;73.040;2023-05-09T00:29:06;94576.47;;;19.52;41.80
73332;BME280;61560;33.718;73.040;2023-05-09T00:31:33;94581.53;;;19.54;41.75
73332;BME280;61560;33.718;73.040;2023-05-09T00:34:00;94580.59;;;19.57;42.24
73332;BME280;61560;33.718;73.040;2023-05-09T00:36:27;94582.88;;;19.58;42.52
73332;BME280;61560;33.718;73.040;2023-05-09T00:38:53;94588.56;;;19.64;42.29
73332;BME280;61560;33.718;73.040;2023-05-09T00:41:20;94582.53;;;19.66;42.14
73332;BME280;61560;33.718;73.040;2023-05-09T00:43:48;94587.50;;;19.62;42.37
73332;BME280;61560;33.718;73.040;2023-05-09T00:46:14;94588.84;;;19.66;42.17
73332;BME280;61560;33.718;73.040;2023-05-09T00:48:41;94586.09;;;19.66;42.33
73332;BME280;61560;33.718;73.040;2023-05-09T00:51:07;94598.06;;;19.72;42.47
73332;BME280;61560;33.718;73.040;2023-05-09T00:53:35;94608.22;;;19.75;43.01
73332;BME280;61560;33.718;73.040;2023-05-09T00:56:01;94597.69;;;19.79;43.03
73332;BME280;61560;33.718;73.040;2023-05-09T00:58:28;94606.00;;;19.79;42.01
73332;BME280;61560;33.718;73.040;2023-05-09T01:00:55;94608.59;;;19.83;41.93
73332;BME280;61560;33.718;73.040;2023-05-09T01:03:22;94612.28;;;19.89;41.66
73332;BME280;61560;33.718;73.040;2023-05-09T01:05:56;94626.25;;;19.94;41.56
73332;BME280;61560;33.718;73.040;2023-05-09T01:08:48;94622.72;;;19.94;41.60
73332;BME280;61560;33.718;73.040;2023-05-09T01:11:35;94629.91;;;20.00;42.01
73332;BME280;61560;33.718;73.040;2023-05-09T01:14:14;94626.00;;;20.07;42.28
73332;BME280;61560;33.718;73.040;2023-05-09T01:22:06;94628.69;;;20.30;42.95
73332;BME280;61560;33.718;73.040;2023-05-09T01:28:13;94642.31;;;20.58;42.82
73332;BME280;61560;33.718;73.040;2023-05-09T01:30:44;94642.88;;;20.76;42.13
73332;BME280;61560;33.718;73.040;2023-05-09T01:33:16;94641.66;;;20.97;41.11
73332;BME280;61560;33.718;73.040;2023-05-09T01:35:50;94626.16;;;21.46;40.18
73332;BME280;61560;33.718;73.040;2023-05-09T01:38:21;94628.72;;;22.41;38.60
73332;BME280;61560;33.718;73.040;2023-05-09T01:40:51;94627.88;;;23.76;36.19
73332;BME280;61560;33.718;73.040;2023-05-09T01:43:21;94632.91;;;25.08;33.60
73332;BME280;61560;33.718;73.040;2023-05-09T01:45:51;94629.31;;;26.15;31.72
73332;BME280;61560;33.718;73.040;2023-05-09T01:48:18;94639.94;;;27.04;30.64
73332;BME280;61560;33.718;73.040;2023-05-09T01:50:47;94632.19;;;27.88;29.64
73332;BME280;61560;33.718;73.040;2023-05-09T01:53:16;94640.09;;;28.69;28.49
73332;BME280;61560;33.718;73.040;2023-05-09T01:55:44;94643.47;;;29.44;27.69
73332;BME280;61560;33.718;73.040;2023-05-09T01:58:12;94641.47;;;29.97;26.72
73332;BME280;61560;33.718;73.040;2023-05-09T02:00:40;94651.03;;;30.33;25.95
73332;BME280;61560;33.718;73.040;2023-05-09T02:03:07;94655.25;;;30.87;25.53
73332;BME280;61560;33.718;73.040;2023-05-09T02:05:36;94663.13;;;31.22;24.96
73332;BME280;61560;33.718;73.040;2023-05-09T02:08:03;94670.72;;;31.27;24.38
73332;BME280;61560;33.718;73.040;2023-05-09T02:10:32;94669.66;;;31.51;24.15
73332;BME280;61560;33.718;73.040;2023-05-09T02:13:00;94667.84;;;31.89;23.32
73332;BME280;61560;33.718;73.040;2023-05-09T02:15:28;94662.22;;;32.60;22.75
73332;BME280;61560;33.718;73.040;2023-05-09T02:17:54;94667.31;;;33.13;22.67
73332;BME280;61560;33.718;73.040;2023-05-09T02:20:24;94660.72;;;33.33;21.78
73332;BME280;61560;33.718;73.040;2023-05-09T02:22:50;94665.84;;;33.64;21.93
73332;BME280;61560;33.718;73.040;2023-05-09T02:25:18;94667.75;;;33.54;21.22
73332;BME280;61560;33.718;73.040;2023-05-09T02:27:45;94662.25;;;33.41;21.90
73332;BME280;61560;33.718;73.040;2023-05-09T02:30:19;94670.97;;;33.43;21.42
73332;BME280;61560;33.718;73.040;2023-05-09T02:32:55;94674.19;;;32.74;21.90
73332;BME280;61560;33.718;73.040;2023-05-09T02:35:25;94677.38;;;32.70;22.64
73332;BME280;61560;33.718;73.040;2023-05-09T02:37:53;94682.22;;;32.19;22.84
73332;BME280;61560;33.718;73.040;2023-05-09T02:40:21;94694.19;;;31.97;23.07
73332;BME280;61560;33.718;73.040;2023-05-09T02:42:48;94681.59;;;31.57;22.97
73332;BME280;61560;33.718;73.040;2023-05-09T02:45:15;94696.72;;;31.05;23.86
73332;BME280;61560;33.718;73.040;2023-05-09T02:47:42;94698.50;;;30.48;24.90
73332;BME280;61560;33.718;73.040;2023-05-09T02:50:08;94696.69;;;30.37;25.53
73332;BME280;61560;33.718;73.040;2023-05-09T02:52:37;94707.75;;;30.35;24.57
73332;BME280;61560;33.718;73.040;2023-05-09T02:55:04;94710.25;;;30.13;24.80
73332;BME280;61560;33.718;73.040;2023-05-09T02:57:35;94720.97;;;29.75;25.10
73332;BME280;61560;33.718;73.040;2023-05-09T03:00:03;94710.94;;;29.61;25.44
73332;BME280;61560;33.718;73.040;2023-05-09T03:02:42;94719.28;;;29.22;25.71
73332;BME280;61560;33.718;73.040;2023-05-09T03:05:14;94724.47;;;29.18;26.66
73332;BME280;61560;33.718;73.040;2023-05-09T03:07:41;94722.09;;;29.22;26.13
73332;BME280;61560;33.718;73.040;2023-05-09T03:10:08;94723.50;;;29.15;26.71
73332;BME280;61560;33.718;73.040;2023-05-09T03:12:37;94726.03;;;29.00;26.81
73332;BME280;61560;33.718;73.040;2023-05-09T03:15:05;94719.28;;;29.03;26.94
73332;BME280;61560;33.718;73.040;2023-05-09T03:17:32;94711.97;;;28.94;26.90
73332;BME280;61560;33.718;73.040;2023-05-09T03:19:59;94717.78;;;29.02;27.19
73332;BME280;61560;33.718;73.040;2023-05-09T03:22:25;94724.16;;;29.02;26.32
73332;BME280;61560;33.718;73.040;2023-05-09T03:24:57;94721.56;;;29.04;27.24
73332;BME280;61560;33.718;73.040;2023-05-09T03:27:28;94718.63;;;29.16;25.64
73332;BME280;61560;33.718;73.040;2023-05-09T03:29:55;94723.09;;;29.69;25.14
73332;BME280;61560;33.718;73.040;2023-05-09T03:32:23;94723.75;;;30.33;25.00
73332;BME280;61560;33.718;73.040;2023-05-09T03:34:50;94723.06;;;31.00;24.19
73332;BME280;61560;33.718;73.040;2023-05-09T03:37:16;94728.19;;;31.76;23.28
73332;BME280;61560;33.718;73.040;2023-05-09T03:39:44;94723.47;;;32.27;22.02
73332;BME280;61560;33.718;73.040;2023-05-09T03:42:12;94716.06;;;32.96;20.75
73332;BME280;61560;33.718;73.040;2023-05-09T03:45:01;94713.41;;;34.17;20.02
73332;BME280;61560;33.718;73.040;2023-05-09T03:47:28;94708.09;;;35.30;19.17
73332;BME280;61560;33.718;73.040;2023-05-09T03:49:55;94712.97;;;36.36;18.76
73332;BME280;61560;33.718;73.040;2023-05-09T03:52:22;94716.78;;;36.73;18.08
73332;BME280;61560;33.718;73.040;2023-05-09T03:54:50;94719.09;;;37.18;17.70
73332;BME280;61560;33.718;73.040;2023-05-09T03:57:17;94720.84;;;37.31;17.44
73332;BME280;61560;33.718;73.040;2023-05-09T03:59:47;94713.63;;;37.83;16.33
73332;BME280;61560;33.718;73.040;2023-05-09T04:02:14;94706.34;;;38.74;16.62
73332;BME280;61560;33.718;73.040;2023-05-09T04:04:42;94708.00;;;39.24;15.92
73332;BME280;61560;33.718;73.040;2023-05-09T04:07:10;94704.97;;;39.82;15.15
73332;BME280;61560;33.718;73.040;2023-05-09T04:09:37;94709.88;;;40.31;14.58
73332;BME280;61560;33.718;73.040;2023-05-09T04:12:03;94706.28;;;40.94;14.10
73332;BME280;61560;33.718;73.040;2023-05-09T04:14:31;94706.84;;;41.46;13.29
73332;BME280;61560;33.718;73.040;2023-05-09T04:16:58;94706.59;;;41.87;12.95
73332;BME280;61560;33.718;73.040;2023-05-09T04:19:25;94703.47;;;42.29;12.08
73332;BME280;61560;33.718;73.040;2023-05-09T04:21:51;94697.34;;;42.46;12.80
73332;BME280;61560;33.718;73.040;2023-05-09T04:24:19;94701.94;;;42.63;12.97
73332;BME280;61560;33.718;73.040;2023-05-09T04:26:47;94706.75;;;42.95;11.93
73332;BME280;61560;33.718;73.040;2023-05-09T04:29:19;94701.97;;;42.99;11.62
73332;BME280;61560;33.718;73.040;2023-05-09T04:31:51;94698.69;;;43.05;11.35
73332;BME280;61560;33.718;73.040;2023-05-09T04:34:18;94711.03;;;43.31;11.09
73332;BME280;61560;33.718;73.040;2023-05-09T04:36:45;94706.63;;;43.55;11.05
73332;BME280;61560;33.718;73.040;2023-05-09T04:39:12;94713.81;;;43.92;10.59
73332;BME280;61560;33.718;73.040;2023-05-09T04:41:45;94710.66;;;44.27;10.27
73332;BME280;61560;33.718;73.040;2023-05-09T04:44:15;94719.75;;;44.08;10.52
73332;BME280;61560;33.718;73.040;2023-05-09T04:46:42;94705.72;;;43.64;10.86
73332;BME280;61560;33.718;73.040;2023-05-09T04:49:11;94707.88;;;43.77;11.04
73332;BME280;61560;33.718;73.040;2023-05-09T04:51:37;94710.13;;;43.78;11.16
73332;BME280;61560;33.718;73.040;2023-05-09T04:54:05;94709.94;;;43.88;11.01
73332;BME280;61560;33.718;73.040;2023-05-09T04:56:35;94715.94;;;43.92;11.51
73332;BME280;61560;33.718;73.040;2023-05-09T04:59:01;94708.31;;;43.85;10.92
73332;BME280;61560;33.718;73.040;2023-05-09T05:01:28;94714.75;;;43.97;10.95
73332;BME280;61560;33.718;73.040;2023-05-09T05:03:57;94710.97;;;44.06;10.95
73332;BME280;61560;33.718;73.040;2023-05-09T05:06:23;94709.53;;;43.93;9.53
73332;BME280;61560;33.718;73.040;2023-05-09T05:08:50;94711.50;;;44.03;10.24
73332;BME280;61560;33.718;73.040;2023-05-09T05:11:17;94707.31;;;44.06;10.33
73332;BME280;61560;33.718;73.040;2023-05-09T05:13:44;94712.47;;;44.34;10.36
73332;BME280;61560;33.718;73.040;2023-05-09T05:16:10;94711.72;;;44.20;10.61
73332;BME280;61560;33.718;73.040;2023-05-09T05:18:38;94705.28;;;44.22;9.97
73332;BME280;61560;33.718;73.040;2023-05-09T05:21:08;94709.84;;;43.86;10.20
73332;BME280;61560;33.718;73.040;2023-05-09T05:23:35;94701.22;;;43.36;10.07
73332;BME280;61560;33.718;73.040;2023-05-09T05:26:02;94697.31;;;43.56;10.01
73332;BME280;61560;33.718;73.040;2023-05-09T05:28:31;94703.41;;;43.74;10.04
73332;BME280;61560;33.718;73.040;2023-05-09T05:30:57;94709.41;;;43.53;10.33
73332;BME280;61560;33.718;73.040;2023-05-09T05:33:24;94700.63;;;42.89;10.34
73332;BME280;61560;33.718;73.040;2023-05-09T05:35:51;94700.06;;;42.67;11.09
73332;BME280;61560;33.718;73.040;2023-05-09T05:38:18;94707.94;;;42.67;11.30
73332;BME280;61560;33.718;73.040;2023-05-09T05:40:48;94695.09;;;42.45;11.18
73332;BME280;61560;33.718;73.040;2023-05-09T05:43:15;94701.97;;;42.39;11.79
73332;BME280;61560;33.718;73.040;2023-05-09T05:45:42;94708.19;;;41.90;11.70
73332;BME280;61560;33.718;73.040;2023-05-09T05:48:14;94703.97;;;41.46;12.14
73332;BME280;61560;33.718;73.040;2023-05-09T05:50:41;94709.97;;;41.06;12.83
73332;BME280;61560;33.718;73.040;2023-05-09T05:53:08;94703.00;;;40.67;12.52
73332;BME280;61560;33.718;73.040;2023-05-09T05:55:35;94704.59;;;40.28;13.20
73332;BME280;61560;33.718;73.040;2023-05-09T05:58:03;94706.88;;;39.49;13.86
73332;BME280;61560;33.718;73.040;2023-05-09T06:00:30;94703.47;;;38.83;14.45
73332;BME280;61560;33.718;73.040;2023-05-09T06:03:02;94703.34;;;38.16;15.36
73332;BME280;61560;33.718;73.040;2023-05-09T06:05:54;94698.09;;;37.77;14.80
73332;BME280;61560;33.718;73.040;2023-05-09T06:08:21;94694.31;;;37.21;15.70
73332;BME280;61560;33.718;73.040;2023-05-09T06:10:48;94698.09;;;36.97;15.84
73332;BME280;61560;33.718;73.040;2023-05-09T06:13:15;94703.78;;;36.62;16.53
73332;BME280;61560;33.718;73.040;2023-05-09T06:15:47;94699.53;;;36.12;16.48
73332;BME280;61560;33.718;73.040;2023-05-09T06:18:14;94704.13;;;35.83;16.40
73332;BME280;61560;33.718;73.040;2023-05-09T06:20:42;94690.16;;;35.70;16.28
73332;BME280;61560;33.718;73.040;2023-05-09T06:23:08;94692.66;;;35.66;17.43
73332;BME280;61560;33.718;73.040;2023-05-09T06:25:35;94686.25;;;35.65;17.69
73332;BME280;61560;33.718;73.040;2023-05-09T06:28:03;94684.31;;;35.35;16.54
73332;BME280;61560;33.718;73.040;2023-05-09T06:30:30;94690.50;;;35.49;17.08
73332;BME280;61560;33.718;73.040;2023-05-09T06:32:59;94686.94;;;35.49;18.20
73332;BME280;61560;33.718;73.040;2023-05-09T06:35:28;94681.00;;;35.54;18.73
73332;BME280;61560;33.718;73.040;2023-05-09T06:37:55;94687.28;;;35.53;18.41
73332;BME280;61560;33.718;73.040;2023-05-09T06:40:21;94692.06;;;35.42;18.52
73332;BME280;61560;33.718;73.040;2023-05-09T06:42:48;94690.34;;;35.47;19.00
73332;BME280;61560;33.718;73.040;2023-05-09T06:45:15;94684.72;;;35.32;18.81
73332;BME280;61560;33.718;73.040;2023-05-09T06:47:41;94686.13;;;35.23;18.52
73332;BME280;61560;33.718;73.040;2023-05-09T06:50:08;94670.97;;;34.81;18.13
73332;BME280;61560;33.718;73.040;2023-05-09T06:52:35;94669.75;;;34.92;18.94
73332;BME280;61560;33.718;73.040;2023-05-09T06:55:03;94668.56;;;35.02;18.89
73332;BME280;61560;33.718;73.040;2023-05-09T06:57:30;94673.72;;;35.04;19.22
73332;BME280;61560;33.718;73.040;2023-05-09T06:59:56;94675.44;;;34.99;19.55
73332;BME280;61560;33.718;73.040;2023-05-09T07:02:24;94679.50;;;34.81;19.85
73332;BME280;61560;33.718;73.040;2023-05-09T07:04:51;94673.34;;;34.45;19.10
73332;BME280;61560;33.718;73.040;2023-05-09T07:07:19;94668.44;;;34.38;18.88
73332;BME280;61560;33.718;73.040;2023-05-09T07:09:45;94672.97;;;34.41;19.86
73332;BME280;61560;33.718;73.040;2023-05-09T07:12:12;94663.91;;;34.27;19.63
73332;BME280;61560;33.718;73.040;2023-05-09T07:14:38;94666.19;;;34.29;19.91
73332;BME280;61560;33.718;73.040;2023-05-09T07:17:06;94667.53;;;34.28;20.61
73332;BME280;61560;33.718;73.040;2023-05-09T07:19:36;94661.44;;;34.24;19.49
73332;BME280;61560;33.718;73.040;2023-05-09T07:22:02;94663.38;;;34.21;20.56
73332;BME280;61560;33.718;73.040;2023-05-09T07:24:29;94664.38;;;34.01;20.81
73332;BME280;61560;33.718;73.040;2023-05-09T07:27:01;94658.09;;;33.80;19.48
73332;BME280;61560;33.718;73.040;2023-05-09T07:29:28;94657.69;;;33.46;19.77
73332;BME280;61560;33.718;73.040;2023-05-09T07:31:55;94655.47;;;33.52;20.24
73332;BME280;61560;33.718;73.040;2023-05-09T07:34:21;94647.13;;;33.61;20.80
73332;BME280;61560;33.718;73.040;2023-05-09T07:36:50;94639.38;;;33.62;19.99
73332;BME280;61560;33.718;73.040;2023-05-09T07:39:17;94646.75;;;33.65;20.00
73332;BME280;61560;33.718;73.040;2023-05-09T07:41:44;94646.16;;;33.66;20.40
73332;BME280;61560;33.718;73.040;2023-05-09T07:44:10;94645.78;;;33.62;20.20
73332;BME280;61560;33.718;73.040;2023-05-09T07:46:37;94630.59;;;33.30;19.66
73332;BME280;61560;33.718;73.040;2023-05-09T07:49:07;94641.41;;;33.24;20.29
73332;BME280;61560;33.718;73.040;2023-05-09T07:51:33;94640.09;;;33.25;20.69
73332;BME280;61560;33.718;73.040;2023-05-09T07:54:00;94622.66;;;33.21;20.87
73332;BME280;61560;33.718;73.040;2023-05-09T07:56:26;94634.75;;;33.21;21.49
73332;BME280;61560;33.718;73.040;2023-05-09T07:58:53;94616.41;;;33.22;21.60
73332;BME280;61560;33.718;73.040;2023-05-09T08:01:19;94633.25;;;33.28;20.82
73332;BME280;61560;33.718;73.040;2023-05-09T08:03:47;94614.69;;;33.19;20.60
73332;BME280;61560;33.718;73.040;2023-05-09T08:06:13;94623.22;;;33.19;20.49
73332;BME280;61560;33.718;73.040;2023-05-09T08:08:42;94624.91;;;32.99;20.38
73332;BME280;61560;33.718;73.040;2023-05-09T08:11:08;94624.88;;;32.92;20.91
73332;BME280;61560;33.718;73.040;2023-05-09T08:13:36;94622.78;;;32.92;20.69
73332;BME280;61560;33.718;73.040;2023-05-09T08:16:02;94620.31;;;32.89;21.49
73332;BME280;61560;33.718;73.040;2023-05-09T08:18:31;94614.44;;;32.87;21.33
73332;BME280;61560;33.718;73.040;2023-05-09T08:20:57;94617.47;;;32.81;21.45
73332;BME280;61560;33.718;73.040;2023-05-09T08:23:26;94605.34;;;32.73;21.13
73332;BME280;61560;33.718;73.040;2023-05-09T08:25:53;94611.94;;;32.61;20.75
73332;BME280;61560;33.718;73.040;2023-05-09T08:28:21;94604.34;;;32.56;21.42
73332;BME280;61560;33.718;73.040;2023-05-09T08:30:50;94606.06;;;32.59;21.56
73332;BME280;61560;33.718;73.040;2023-05-09T08:33:18;94601.16;;;32.67;22.06
73332;BME280;61560;33.718;73.040;2023-05-09T08:35:45;94593.03;;;32.63;21.52
73332;BME280;61560;33.718;73.040;2023-05-09T08:38:15;94590.16;;;32.48;21.35
73332;BME280;61560;33.718;73.040;2023-05-09T08:40:41;94597.06;;;32.40;20.16
73332;BME280;61560;33.718;73.040;2023-05-09T08:43:11;94594.78;;;32.31;21.02
73332;BME280;61560;33.718;73.040;2023-05-09T08:45:45;94592.88;;;32.33;21.44
73332;BME280;61560;33.718;73.040;2023-05-09T08:48:17;94582.88;;;32.32;21.21
73332;BME280;61560;33.718;73.040;2023-05-09T08:50:45;94594.59;;;32.28;21.66
73332;BME280;61560;33.718;73.040;2023-05-09T08:53:14;94584.69;;;32.14;21.25
73332;BME280;61560;33.718;73.040;2023-05-09T08:55:40;94580.16;;;32.11;21.40
73332;BME280;61560;33.718;73.040;2023-05-09T08:58:08;94568.22;;;32.05;21.24
73332;BME280;61560;33.718;73.040;2023-05-09T09:00:36;94580.91;;;32.12;21.69
73332;BME280;61560;33.718;73.040;2023-05-09T09:03:06;94572.16;;;32.02;21.05
73332;BME280;61560;33.718;73.040;2023-05-09T09:05:35;94574.41;;;31.96;21.10
73332;BME280;61560;33.718;73.040;2023-05-09T09:08:03;94564.44;;;32.03;21.03
73332;BME280;61560;33.718;73.040;2023-05-09T09:10:33;94569.94;;;32.08;21.97
73332;BME280;61560;33.718;73.040;2023-05-09T09:13:02;94564.63;;;32.05;21.18
73332;BME280;61560;33.718;73.040;2023-05-09T09:15:35;94559.69;;;31.98;21.50
73332;BME280;61560;33.718;73.040;2023-05-09T09:18:07;94563.84;;;31.97;20.87
73332;BME280;61560;33.718;73.040;2023-05-09T09:20:39;94553.84;;;31.96;21.16
73332;BME280;61560;33.718;73.040;2023-05-09T09:23:08;94547.41;;;31.95;21.46
73332;BME280;61560;33.718;73.040;2023-05-09T09:25:38;94549.47;;;31.95;21.21
73332;BME280;61560;33.718;73.040;2023-05-09T09:28:05;94534.13;;;31.90;20.67
73332;BME280;61560;33.718;73.040;2023-05-09T09:30:32;94533.72;;;31.86;21.19
73332;BME280;61560;33.718;73.040;2023-05-09T09:32:58;94538.09;;;31.87;20.44
73332;BME280;61560;33.718;73.040;2023-05-09T09:35:26;94531.09;;;31.88;21.62
73332;BME280;61560;33.718;73.040;2023-05-09T09:37:56;94527.88;;;31.92;21.66
73332;BME280;61560;33.718;73.040;2023-05-09T09:40:26;94525.28;;;31.94;21.10
73332;BME280;61560;33.718;73.040;2023-05-09T09:42:53;94534.19;;;31.98;21.40
73332;BME280;61560;33.718;73.040;2023-05-09T09:45:19;94518.50;;;31.97;21.14
73332;BME280;61560;33.718;73.040;2023-05-09T09:47:47;94517.00;;;31.96;21.26
73332;BME280;61560;33.718;73.040;2023-05-09T09:50:16;94510.97;;;31.99;21.59
73332;BME280;61560;33.718;73.040;2023-05-09T09:52:49;94516.06;;;32.01;21.30
73332;BME280;61560;33.718;73.040;2023-05-09T09:55:17;94513.78;;;31.99;20.96
73332;BME280;61560;33.718;73.040;2023-05-09T09:57:47;94510.56;;;31.95;21.50
73332;BME280;61560;33.718;73.040;2023-05-09T10:00:16;94507.13;;;31.89;21.86
73332;BME280;61560;33.718;73.040;2023-05-09T10:02:49;94506.91;;;31.87;21.99
73332;BME280;61560;33.718;73.040;2023-05-09T10:05:22;94491.41;;;31.88;21.58
73332;BME280;61560;33.718;73.040;2023-05-09T10:08:00;94487.09;;;31.87;21.92
73332;BME280;61560;33.718;73.040;2023-05-09T10:10:30;94482.16;;;31.88;21.89
73332;BME280;61560;33.718;73.040;2023-05-09T10:13:00;94483.50;;;31.87;21.64
73332;BME280;61560;33.718;73.040;2023-05-09T10:15:29;94483.69;;;31.89;21.78
73332;BME280;61560;33.718;73.040;2023-05-09T10:17:58;94484.59;;;31.84;21.25
73332;BME280;61560;33.718;73.040;2023-05-09T10:20:27;94481.56;;;31.82;20.91
73332;BME280;61560;33.718;73.040;2023-05-09T10:22:56;94478.53;;;31.80;21.30
73332;BME280;61560;33.718;73.040;2023-05-09T10:25:31;94476.28;;;31.78;21.14
73332;BME280;61560;33.718;73.040;2023-05-09T10:28:00;94479.69;;;31.84;20.62
73332;BME280;61560;33.718;73.040;2023-05-09T10:30:35;94477.25;;;31.88;20.35
73332;BME280;61560;33.718;73.040;2023-05-09T10:33:09;94468.94;;;31.90;21.21
73332;BME280;61560;33.718;73.040;2023-05-09T10:35:41;94462.53;;;31.90;20.94
73332;BME280;61560;33.718;73.040;2023-05-09T10:38:09;94460.63;;;31.85;20.22
73332;BME280;61560;33.718;73.040;2023-05-09T10:40:39;94468.34;;;31.77;20.61
73332;BME280;61560;33.718;73.040;2023-05-09T10:43:06;94464.00;;;31.76;20.75
73332;BME280;61560;33.718;73.040;2023-05-09T10:45:33;94460.56;;;31.70;20.31
73332;BME280;61560;33.718;73.040;2023-05-09T10:48:00;94462.09;;;31.71;21.06
73332;BME280;61560;33.718;73.040;2023-05-09T10:50:29;94453.59;;;31.71;20.85
73332;BME280;61560;33.718;73.040;2023-05-09T10:55:57;94461.50;;;31.65;20.97
73332;BME280;61560;33.718;73.040;2023-05-09T10:58:31;94445.22;;;31.58;20.46
73332;BME280;61560;33.718;73.040;2023-05-09T11:00:59;94449.59;;;31.59;20.40
73332;BME280;61560;33.718;73.040;2023-05-09T11:03:27;94438.59;;;31.55;19.89
73332;BME280;61560;33.718;73.040;2023-05-09T11:05:56;94459.00;;;31.54;20.13
73332;BME280;61560;33.718;73.040;2023-05-09T11:08:27;94448.22;;;31.52;20.08
73332;BME280;61560;33.718;73.040;2023-05-09T11:10:56;94443.66;;;31.49;19.85
73332;BME280;61560;33.718;73.040;2023-05-09T11:13:30;94436.72;;;31.50;19.29
73332;BME280;61560;33.718;73.040;2023-05-09T11:18:25;94444.03;;;31.45;20.04
73332;BME280;61560;33.718;73.040;2023-05-09T11:20:52;94433.09;;;31.42;20.03
73332;BME280;61560;33.718;73.040;2023-05-09T11:23:20;94433.63;;;31.40;20.04
73332;BME280;61560;33.718;73.040;2023-05-09T11:25:47;94432.13;;;31.39;19.75
73332;BME280;61560;33.718;73.040;2023-05-09T11:28:28;94437.56;;;31.37;19.74
73332;BME280;61560;33.718;73.040;2023-05-09T11:31:16;94443.59;;;31.34;19.90
73332;BME280;61560;33.718;73.040;2023-05-09T11:33:45;94428.84;;;31.28;19.64
73332;BME280;61560;33.718;73.040;2023-05-09T11:39:10;94440.50;;;31.24;19.55
73332;BME280;61560;33.718;73.040;2023-05-09T11:41:45;94434.63;;;31.22;19.38
73332;BME280;61560;33.718;73.040;2023-05-09T11:44:19;94439.56;;;31.22;19.26
73332;BME280;61560;33.718;73.040;2023-05-09T11:46:48;94440.88;;;31.21;18.72
73332;BME280;61560;33.718;73.040;2023-05-09T11:49:14;94448.38;;;31.18;18.75
73332;BME280;61560;33.718;73.040;2023-05-09T11:51:44;94444.97;;;31.12;18.56
73332;BME280;61560;33.718;73.040;2023-05-09T11:54:10;94438.91;;;31.08;18.90
73332;BME280;61560;33.718;73.040;2023-05-09T11:56:40;94447.75;;;31.05;19.02
73332;BME280;61560;33.718;73.040;2023-05-09T11:59:07;94454.19;;;31.05;18.88
73332;BME280;61560;33.718;73.040;2023-05-09T12:01:35;94452.44;;;31.02;19.16
73332;BME280;61560;33.718;73.040;2023-05-09T12:04:02;94452.03;;;30.98;19.36
73332;BME280;61560;33.718;73.040;2023-05-09T12:06:31;94442.78;;;30.98;19.22
73332;BME280;61560;33.718;73.040;2023-05-09T12:09:00;94450.66;;;30.92;19.44
73332;BME280;61560;33.718;73.040;2023-05-09T12:11:28;94444.59;;;30.88;19.23
73332;BME280;61560;33.718;73.040;2023-05-09T12:13:57;94445.16;;;30.86;19.79
73332;BME280;61560;33.718;73.040;2023-05-09T12:16:23;94451.38;;;30.85;19.79
73332;BME280;61560;33.718;73.040;2023-05-09T12:18:51;94440.94;;;30.80;19.79
73332;BME280;61560;33.718;73.040;2023-05-09T12:21:19;94446.75;;;30.74;19.57
73332;BME280;61560;33.718;73.040;2023-05-09T12:23:46;94445.78;;;30.71;19.77
73332;BME280;61560;33.718;73.040;2023-05-09T12:26:16;94449.53;;;30.66;19.35
73332;BME280;61560;33.718;73.040;2023-05-09T12:28:43;94459.88;;;30.64;19.36
73332;BME280;61560;33.718;73.040;2023-05-09T12:31:11;94457.38;;;30.60;19.46
73332;BME280;61560;33.718;73.040;2023-05-09T12:33:38;94462.81;;;30.58;19.42
73332;BME280;61560;33.718;73.040;2023-05-09T12:36:10;94458.84;;;30.54;20.21
73332;BME280;61560;33.718;73.040;2023-05-09T12:38:37;94465.03;;;30.52;19.93
73332;BME280;61560;33.718;73.040;2023-05-09T12:41:06;94470.28;;;30.48;19.89
73332;BME280;61560;33.718;73.040;2023-05-09T12:43:34;94469.31;;;30.46;19.77
73332;BME280;61560;33.718;73.040;2023-05-09T12:46:03;94473.25;;;30.43;19.42
73332;BME280;61560;33.718;73.040;2023-05-09T12:48:38;94470.78;;;30.39;19.07
73332;BME280;61560;33.718;73.040;2023-05-09T12:51:05;94471.84;;;30.36;19.02
73332;BME280;61560;33.718;73.040;2023-05-09T12:53:37;94478.63;;;30.33;18.61
73332;BME280;61560;33.718;73.040;2023-05-09T12:56:16;94485.38;;;30.30;18.38
73332;BME280;61560;33.718;73.040;2023-05-09T12:58:54;94480.19;;;30.21;19.16
73332;BME280;61560;33.718;73.040;2023-05-09T13:01:26;94489.75;;;30.18;19.16
73332;BME280;61560;33.718;73.040;2023-05-09T13:04:13;94492.69;;;30.13;19.38
73332;BME280;61560;33.718;73.040;2023-05-09T13:06:50;94490.53;;;30.06;19.35
73332;BME280;61560;33.718;73.040;2023-05-09T13:09:19;94491.09;;;30.04;19.33
73332;BME280;61560;33.718;73.040;2023-05-09T13:11:45;94495.56;;;30.00;19.33
73332;BME280;61560;33.718;73.040;2023-05-09T13:14:13;94489.28;;;29.93;19.24
73332;BME280;61560;33.718;73.040;2023-05-09T13:16:40;94496.91;;;29.85;19.71